createdAt,value
2018-06-30T00:00:28.793Z,97.50
2018-06-30T00:02:58.169Z,97.40
2018-06-30T00:05:27.571Z,97.20
2018-06-30T00:07:56.871Z,97.50
2018-06-30T00:10:29.738Z,97.70
2018-06-30T00:13:00.467Z,97.70
2018-06-30T00:15:29.811Z,97.90
2018-06-30T00:17:59.123Z,98.10
2018-06-30T00:20:28.384Z,98.00
2018-06-30T00:22:57.728Z,97.80
2018-06-30T00:25:27.531Z,97.90
2018-06-30T00:27:57.326Z,98.10
2018-06-30T00:30:27.042Z,98.10
2018-06-30T00:32:56.979Z,98.40
2018-06-30T00:35:26.307Z,98.80
2018-06-30T00:37:55.667Z,98.70
2018-06-30T00:40:25.066Z,98.80
2018-06-30T00:42:54.376Z,99.10
2018-06-30T00:45:23.804Z,99.30
2018-06-30T00:47:53.250Z,99.30
2018-06-30T00:50:22.603Z,99.10
2018-06-30T00:52:51.870Z,99.70
2018-06-30T00:55:21.156Z,99.30
2018-06-30T00:57:50.559Z,99.40
2018-06-30T01:00:19.880Z,99.40
2018-06-30T01:02:49.343Z,99.40
2018-06-30T01:05:18.686Z,99.90
2018-06-30T01:07:48.510Z,99.80
2018-06-30T01:10:18.359Z,99.70
2018-06-30T01:12:47.632Z,99.50
2018-06-30T01:15:16.912Z,99.80
2018-06-30T01:17:46.211Z,99.90
2018-06-30T01:20:15.510Z,99.90
2018-06-30T01:22:44.745Z,99.90
2018-06-30T01:25:14.003Z,99.90
2018-06-30T01:27:43.284Z,99.90
2018-06-30T01:30:13.788Z,99.90
2018-06-30T01:32:43.175Z,99.90
2018-06-30T01:35:12.462Z,99.90
2018-06-30T01:37:41.691Z,99.90
2018-06-30T01:40:10.968Z,99.90
2018-06-30T01:42:40.222Z,99.90
2018-06-30T01:45:09.534Z,99.90
2018-06-30T01:47:38.900Z,99.90
2018-06-30T01:50:08.261Z,99.90
2018-06-30T01:52:37.724Z,99.90
2018-06-30T01:55:07.028Z,99.90
2018-06-30T01:57:36.342Z,99.90
2018-06-30T02:00:06.496Z,99.90
2018-06-30T02:02:35.841Z,99.90
2018-06-30T02:05:05.296Z,99.90
2018-06-30T02:07:34.547Z,99.90
2018-06-30T02:10:03.853Z,99.90
2018-06-30T02:12:33.189Z,99.90
2018-06-30T02:15:03.207Z,99.90
2018-06-30T02:17:32.494Z,99.90
2018-06-30T02:20:01.708Z,99.90
2018-06-30T02:22:30.972Z,99.90
2018-06-30T02:25:04.180Z,99.90
2018-06-30T02:27:34.271Z,99.90
2018-06-30T02:30:03.791Z,99.90
2018-06-30T02:32:33.101Z,99.90
2018-06-30T02:35:02.595Z,99.90
2018-06-30T02:37:31.915Z,99.90
2018-06-30T02:40:02.918Z,99.90
2018-06-30T02:42:32.148Z,99.90
2018-06-30T02:45:01.469Z,99.90
2018-06-30T02:47:31.550Z,99.90
2018-06-30T02:50:01.052Z,99.90
2018-06-30T02:52:30.340Z,99.90
2018-06-30T02:54:59.689Z,99.90
2018-06-30T02:57:28.952Z,99.90
2018-06-30T02:59:58.264Z,99.90
2018-06-30T03:02:27.543Z,99.90
2018-06-30T03:04:56.861Z,99.90
2018-06-30T03:07:26.423Z,99.90
2018-06-30T03:09:55.759Z,99.90
2018-06-30T03:12:25.069Z,99.90
2018-06-30T03:14:54.371Z,99.90
2018-06-30T03:17:23.653Z,99.90
2018-06-30T03:19:53.122Z,99.90
2018-06-30T03:22:22.822Z,99.90
2018-06-30T03:24:52.210Z,99.90
2018-06-30T03:27:21.552Z,99.90
2018-06-30T03:29:51.597Z,99.90
2018-06-30T03:32:21.626Z,99.90
2018-06-30T03:34:51.003Z,99.90
2018-06-30T03:37:20.666Z,99.90
2018-06-30T03:39:50.010Z,99.90
2018-06-30T03:42:19.380Z,99.90
2018-06-30T03:44:49.418Z,99.90
2018-06-30T03:47:18.779Z,99.90
2018-06-30T03:49:48.239Z,99.90
2018-06-30T03:52:17.479Z,99.90
2018-06-30T03:54:46.731Z,99.90
2018-06-30T03:57:16.003Z,99.90
2018-06-30T03:59:45.375Z,99.90
2018-06-30T04:02:14.680Z,99.90
2018-06-30T04:04:43.908Z,99.90
2018-06-30T04:07:13.213Z,99.90
2018-06-30T04:09:43.019Z,99.90
2018-06-30T04:12:12.275Z,99.90
2018-06-30T04:14:41.484Z,99.90
2018-06-30T04:17:11.444Z,99.90
2018-06-30T04:19:41.903Z,99.90
2018-06-30T04:22:11.327Z,99.90
2018-06-30T04:24:40.549Z,99.90
2018-06-30T04:27:09.843Z,99.90
2018-06-30T04:29:39.080Z,99.90
2018-06-30T04:32:08.412Z,99.90
2018-06-30T04:34:37.721Z,99.90
2018-06-30T04:37:06.999Z,99.90
2018-06-30T04:39:36.328Z,99.90
2018-06-30T04:42:05.730Z,99.90
2018-06-30T04:44:34.981Z,99.90
2018-06-30T04:47:04.193Z,99.90
2018-06-30T04:49:34.148Z,99.90
2018-06-30T04:52:03.656Z,99.90
2018-06-30T04:54:32.992Z,99.90
2018-06-30T04:57:02.252Z,99.90
2018-06-30T04:59:31.560Z,99.90
2018-06-30T05:02:00.810Z,99.90
2018-06-30T05:04:30.049Z,99.90
2018-06-30T05:06:59.380Z,99.90
2018-06-30T05:09:28.723Z,99.90
2018-06-30T05:11:58.007Z,99.90
2018-06-30T05:14:27.288Z,99.90
2018-06-30T05:16:56.634Z,99.90
2018-06-30T05:19:26.635Z,99.90
2018-06-30T05:21:55.931Z,99.90
2018-06-30T05:24:25.576Z,99.90
2018-06-30T05:26:54.974Z,99.90
2018-06-30T05:29:24.287Z,99.90
2018-06-30T05:31:53.760Z,99.90
2018-06-30T05:34:23.059Z,99.90
2018-06-30T05:36:53.071Z,99.90
2018-06-30T05:39:22.414Z,99.90
2018-06-30T05:41:51.656Z,99.90
2018-06-30T05:44:21.637Z,99.90
2018-06-30T05:46:50.872Z,99.90
2018-06-30T05:49:20.396Z,99.90
2018-06-30T05:51:49.716Z,99.90
2018-06-30T05:54:19.040Z,99.70
2018-06-30T05:56:48.400Z,99.90
2018-06-30T05:59:17.728Z,99.50
2018-06-30T06:01:47.096Z,99.00
2018-06-30T06:04:16.873Z,99.00
2018-06-30T06:06:46.382Z,98.40
2018-06-30T06:09:15.715Z,98.10
2018-06-30T06:11:45.585Z,97.80
2018-06-30T06:14:14.841Z,97.90
2018-06-30T06:16:44.263Z,98.00
2018-06-30T06:19:13.632Z,97.40
2018-06-30T06:21:43.032Z,97.00
2018-06-30T06:24:12.357Z,96.70
2018-06-30T06:26:41.920Z,96.30
2018-06-30T06:29:12.035Z,95.80
2018-06-30T06:31:41.328Z,95.50
2018-06-30T06:34:10.729Z,95.40
2018-06-30T06:36:40.080Z,95.30
2018-06-30T06:39:10.545Z,95.00
2018-06-30T06:41:40.275Z,94.60
2018-06-30T06:44:09.635Z,94.40
2018-06-30T06:46:39.475Z,94.30
2018-06-30T06:49:08.766Z,93.90
2018-06-30T06:51:38.211Z,94.00
2018-06-30T06:54:08.198Z,93.60
2018-06-30T06:56:38.574Z,93.20
2018-06-30T06:59:07.939Z,92.90
2018-06-30T07:01:37.319Z,92.50
2018-06-30T07:04:06.667Z,92.40
2018-06-30T07:06:36.026Z,92.00
2018-06-30T07:09:07.892Z,91.80
2018-06-30T07:11:37.453Z,91.00
2018-06-30T07:14:06.807Z,90.40
2018-06-30T07:16:36.127Z,90.00
2018-06-30T07:19:06.055Z,89.10
2018-06-30T07:21:35.646Z,88.70
2018-06-30T07:24:05.014Z,87.70
2018-06-30T07:26:34.338Z,87.10
2018-06-30T07:29:03.732Z,86.40
2018-06-30T07:31:33.240Z,87.60
2018-06-30T07:34:02.717Z,85.70
2018-06-30T07:36:32.053Z,86.00
2018-06-30T07:39:01.364Z,85.80
2018-06-30T07:41:30.745Z,84.00
2018-06-30T07:44:00.045Z,82.20
2018-06-30T07:46:29.412Z,82.20
2018-06-30T07:48:59.124Z,80.00
2018-06-30T07:51:28.708Z,79.90
2018-06-30T07:53:59.015Z,80.10
2018-06-30T07:56:28.304Z,78.50
2018-06-30T07:58:57.629Z,78.10
2018-06-30T08:01:27.063Z,77.90
2018-06-30T08:03:56.410Z,77.20
2018-06-30T08:06:25.806Z,76.20
2018-06-30T08:08:55.052Z,76.60
2018-06-30T08:11:24.381Z,75.00
2018-06-30T08:13:53.621Z,75.20
2018-06-30T08:16:22.967Z,72.90
2018-06-30T08:18:52.223Z,71.70
2018-06-30T08:21:21.591Z,72.00
2018-06-30T08:23:51.575Z,73.00
2018-06-30T08:26:20.904Z,71.00
2018-06-30T08:28:50.203Z,71.00
2018-06-30T08:31:19.436Z,70.20
2018-06-30T08:33:48.739Z,70.30
2018-06-30T08:36:18.030Z,70.20
2018-06-30T08:38:47.456Z,69.00
2018-06-30T08:41:16.753Z,69.60
2018-06-30T08:43:46.076Z,69.00
2018-06-30T08:46:15.408Z,69.40
2018-06-30T08:48:44.783Z,67.90
2018-06-30T08:51:14.164Z,67.20
2018-06-30T08:53:43.584Z,67.10
2018-06-30T08:56:12.985Z,67.10
2018-06-30T08:58:42.343Z,67.10
2018-06-30T09:01:11.846Z,65.50
2018-06-30T09:03:41.207Z,67.00
2018-06-30T09:06:11.208Z,65.60
2018-06-30T09:08:40.852Z,64.50
2018-06-30T09:11:10.837Z,64.30
2018-06-30T09:13:40.182Z,63.10
2018-06-30T09:16:09.472Z,63.40
2018-06-30T09:18:39.065Z,63.70
2018-06-30T09:21:08.478Z,64.30
2018-06-30T09:23:37.812Z,63.40
2018-06-30T09:26:07.196Z,62.70
2018-06-30T09:28:36.593Z,62.30
2018-06-30T09:31:05.915Z,62.50
2018-06-30T09:33:35.207Z,60.70
2018-06-30T09:36:04.591Z,60.30
2018-06-30T09:40:59.211Z,61.00
2018-06-30T09:43:28.498Z,59.70
2018-06-30T09:45:57.779Z,58.70
2018-06-30T09:48:27.129Z,59.20
2018-06-30T09:50:56.469Z,57.60
2018-06-30T09:53:25.707Z,58.30
2018-06-30T09:55:55.135Z,57.20
2018-06-30T09:58:24.412Z,56.70
2018-06-30T10:00:58.995Z,56.60
2018-06-30T10:03:28.313Z,56.10
2018-06-30T10:05:57.627Z,55.80
2018-06-30T10:08:26.893Z,54.90
2018-06-30T10:10:56.172Z,54.00
2018-06-30T10:13:25.565Z,54.00
2018-06-30T10:15:55.016Z,52.10
2018-06-30T10:18:24.366Z,52.80
2018-06-30T10:20:54.029Z,52.50
2018-06-30T10:23:23.152Z,52.10
2018-06-30T10:25:52.389Z,52.10
2018-06-30T10:28:21.972Z,52.70
2018-06-30T10:30:51.430Z,51.10
2018-06-30T10:33:20.660Z,50.20
2018-06-30T10:35:49.965Z,48.60
2018-06-30T10:38:19.339Z,49.10
2018-06-30T10:40:48.654Z,49.30
2018-06-30T10:43:18.168Z,48.50
2018-06-30T10:45:47.601Z,46.80
2018-06-30T10:48:16.951Z,48.10
2018-06-30T10:50:46.209Z,46.80
2018-06-30T10:53:15.510Z,47.40
2018-06-30T10:55:44.792Z,43.30
2018-06-30T10:58:14.063Z,44.70
2018-06-30T11:00:43.285Z,43.80
2018-06-30T11:03:13.672Z,41.90
2018-06-30T11:05:43.017Z,43.30
2018-06-30T11:08:12.311Z,41.80
2018-06-30T11:10:41.561Z,41.30
2018-06-30T11:13:10.855Z,41.80
2018-06-30T11:15:40.180Z,42.50
2018-06-30T11:18:09.501Z,41.00
2018-06-30T11:20:39.330Z,41.40
2018-06-30T11:23:09.125Z,40.40
2018-06-30T11:25:38.392Z,40.10
2018-06-30T11:28:07.760Z,38.40
2018-06-30T11:30:37.061Z,39.20
2018-06-30T11:33:06.407Z,38.40
2018-06-30T11:35:35.672Z,40.00
2018-06-30T11:38:04.937Z,39.60
2018-06-30T11:40:34.498Z,38.80
2018-06-30T11:43:03.671Z,35.60
2018-06-30T11:45:32.935Z,38.00
2018-06-30T11:48:02.266Z,36.40
2018-06-30T11:50:31.739Z,35.70
2018-06-30T11:53:00.929Z,34.60
2018-06-30T11:55:30.815Z,37.20
2018-06-30T11:58:00.155Z,34.90
2018-06-30T12:00:29.567Z,34.10
2018-06-30T12:02:59.969Z,35.30
2018-06-30T12:05:29.242Z,36.40
2018-06-30T12:07:58.527Z,35.00
2018-06-30T12:10:27.879Z,33.10
2018-06-30T12:12:57.765Z,35.00
2018-06-30T12:15:27.076Z,36.00
2018-06-30T12:17:56.348Z,34.50
2018-06-30T12:20:25.584Z,33.70
2018-06-30T12:22:54.927Z,34.10
2018-06-30T12:25:24.844Z,33.90
2018-06-30T12:27:54.108Z,35.10
2018-06-30T12:30:23.425Z,34.00
2018-06-30T12:32:52.769Z,32.50
2018-06-30T12:35:22.402Z,34.70
2018-06-30T12:37:51.744Z,34.40
2018-06-30T12:40:21.030Z,34.30
2018-06-30T12:42:50.672Z,35.30
2018-06-30T12:45:20.196Z,34.60
2018-06-30T12:47:49.516Z,33.50
2018-06-30T12:50:18.744Z,33.70
2018-06-30T12:52:48.750Z,35.80
2018-06-30T12:55:18.070Z,34.60
2018-06-30T12:57:47.372Z,36.10
2018-06-30T13:00:16.717Z,35.00
2018-06-30T13:02:46.266Z,35.30
2018-06-30T13:05:15.634Z,32.70
2018-06-30T13:07:45.028Z,35.20
2018-06-30T13:10:14.457Z,34.40
2018-06-30T13:12:43.826Z,33.90
2018-06-30T13:15:13.599Z,33.60
2018-06-30T13:17:42.855Z,33.80
2018-06-30T13:20:12.195Z,31.50
2018-06-30T13:22:41.563Z,33.40
2018-06-30T13:25:10.852Z,33.00
2018-06-30T13:27:40.186Z,33.50
2018-06-30T13:30:09.578Z,32.30
2018-06-30T13:32:38.879Z,32.70
2018-06-30T13:35:08.179Z,33.60
2018-06-30T13:37:37.488Z,33.20
2018-06-30T13:40:06.794Z,33.80
2018-06-30T13:42:36.253Z,34.00
2018-06-30T13:45:07.005Z,33.50
2018-06-30T13:47:36.296Z,32.10
2018-06-30T13:50:06.073Z,32.80
2018-06-30T13:52:35.418Z,33.50
2018-06-30T13:55:05.358Z,33.60
2018-06-30T13:57:34.992Z,32.60
2018-06-30T14:00:05.363Z,33.80
2018-06-30T14:02:34.662Z,32.10
2018-06-30T14:05:04.635Z,32.70
2018-06-30T14:07:34.068Z,33.10
2018-06-30T14:10:03.487Z,32.70
2018-06-30T14:12:32.844Z,34.60
2018-06-30T14:15:02.184Z,33.70
2018-06-30T14:17:32.061Z,33.20
2018-06-30T14:20:02.044Z,32.50
2018-06-30T14:22:31.351Z,33.60
2018-06-30T14:25:00.738Z,34.10
2018-06-30T14:27:30.020Z,33.10
2018-06-30T14:30:04.268Z,34.50
2018-06-30T14:32:33.522Z,33.10
2018-06-30T14:35:02.804Z,32.90
2018-06-30T14:37:32.103Z,32.50
2018-06-30T14:40:01.404Z,35.70
2018-06-30T14:42:30.683Z,35.00
2018-06-30T14:45:00.524Z,34.40
2018-06-30T14:47:29.767Z,33.00
2018-06-30T14:50:00.258Z,34.60
2018-06-30T14:52:29.728Z,33.00
2018-06-30T14:54:59.014Z,33.50
2018-06-30T14:57:28.792Z,33.40
2018-06-30T14:59:58.036Z,33.40
2018-06-30T15:02:27.288Z,33.00
2018-06-30T15:04:56.903Z,33.20
2018-06-30T15:07:27.002Z,33.60
2018-06-30T15:09:56.306Z,34.90
2018-06-30T15:12:25.683Z,34.50
2018-06-30T15:14:54.971Z,35.50
2018-06-30T15:17:24.525Z,32.30
2018-06-30T15:19:53.755Z,34.30
2018-06-30T15:22:23.298Z,35.60
2018-06-30T15:24:52.694Z,34.10
2018-06-30T15:27:21.938Z,35.30
2018-06-30T15:29:51.299Z,34.90
2018-06-30T15:32:21.465Z,34.70
2018-06-30T15:34:51.390Z,36.20
2018-06-30T15:37:20.672Z,35.30
2018-06-30T15:39:50.092Z,35.20
2018-06-30T15:42:19.420Z,36.40
2018-06-30T15:44:49.248Z,35.40
2018-06-30T15:47:18.629Z,36.30
2018-06-30T15:49:48.035Z,35.60
2018-06-30T15:52:17.348Z,38.20
2018-06-30T15:54:47.518Z,35.80
2018-06-30T15:57:17.354Z,36.00
2018-06-30T15:59:47.853Z,36.80
2018-06-30T16:02:17.959Z,37.80
2018-06-30T16:04:47.407Z,35.80
2018-06-30T16:07:17.133Z,36.80
2018-06-30T16:09:46.687Z,35.50
2018-06-30T16:12:16.152Z,36.40
2018-06-30T16:14:45.482Z,36.40
2018-06-30T16:17:14.811Z,36.50
2018-06-30T16:19:44.097Z,36.40
2018-06-30T16:22:13.912Z,36.80
2018-06-30T16:24:43.240Z,35.60
2018-06-30T16:27:12.544Z,35.40
2018-06-30T16:29:42.064Z,35.40
2018-06-30T16:32:11.456Z,35.30
2018-06-30T16:34:43.348Z,36.20
2018-06-30T16:37:12.615Z,35.00
2018-06-30T16:39:42.016Z,35.70
2018-06-30T16:42:12.025Z,36.60
2018-06-30T16:44:41.664Z,37.20
2018-06-30T16:47:12.092Z,36.30
2018-06-30T16:49:41.386Z,35.80
2018-06-30T16:52:10.859Z,36.10
2018-06-30T16:54:40.065Z,35.40
2018-06-30T16:57:09.420Z,36.40
2018-06-30T16:59:38.847Z,35.50
2018-06-30T17:02:08.444Z,36.40
2018-06-30T17:04:37.814Z,36.70
2018-06-30T17:07:07.473Z,36.50
2018-06-30T17:09:36.740Z,36.20
2018-06-30T17:12:06.270Z,35.10
2018-06-30T17:14:35.631Z,36.00
2018-06-30T17:17:05.012Z,35.60
2018-06-30T17:19:34.268Z,36.80
2018-06-30T17:22:03.727Z,36.30
2018-06-30T17:24:33.090Z,36.40
2018-06-30T17:27:03.208Z,36.70
2018-06-30T17:29:33.124Z,48.20
2018-06-30T17:32:02.990Z,40.50
2018-06-30T17:34:32.510Z,41.30
2018-06-30T17:37:01.937Z,40.50
2018-06-30T17:39:31.306Z,40.70
2018-06-30T17:42:00.808Z,41.50
2018-06-30T17:44:30.457Z,39.90
2018-06-30T17:47:00.777Z,38.60
2018-06-30T17:49:30.048Z,39.20
2018-06-30T17:51:59.473Z,35.20
2018-06-30T17:54:28.886Z,38.20
2018-06-30T17:59:27.424Z,37.10
2018-06-30T18:01:56.903Z,37.70
2018-06-30T18:04:26.462Z,37.20
2018-06-30T18:06:56.513Z,37.80
2018-06-30T18:09:27.210Z,37.30
2018-06-30T18:11:56.552Z,38.20
2018-06-30T18:14:25.853Z,37.00
2018-06-30T18:16:55.264Z,37.40
2018-06-30T18:19:24.529Z,36.90
2018-06-30T18:21:54.167Z,37.20
2018-06-30T18:24:23.616Z,38.10
2018-06-30T18:26:52.994Z,36.50
2018-06-30T18:29:22.383Z,37.50
2018-06-30T18:31:51.768Z,38.10
2018-06-30T18:34:21.177Z,37.80
2018-06-30T18:36:50.642Z,37.50
2018-06-30T18:39:20.673Z,38.70
2018-06-30T18:41:49.983Z,40.60
2018-06-30T18:44:19.399Z,39.40
2018-06-30T18:46:48.761Z,40.70
2018-06-30T18:49:18.092Z,41.40
2018-06-30T18:51:47.559Z,40.30
2018-06-30T18:54:17.109Z,39.20
2018-06-30T18:59:16.524Z,40.10
2018-06-30T19:01:46.737Z,39.70
2018-06-30T19:04:16.111Z,39.60
2018-06-30T19:06:45.394Z,39.70
2018-06-30T19:09:15.376Z,40.80
2018-06-30T19:11:45.284Z,40.30
2018-06-30T19:14:14.884Z,40.00
2018-06-30T19:16:44.477Z,40.40
2018-06-30T19:19:15.303Z,40.10
2018-06-30T19:21:44.594Z,40.70
2018-06-30T19:24:14.261Z,40.80
2018-06-30T19:26:44.617Z,41.60
2018-06-30T19:29:14.228Z,43.90
2018-06-30T19:31:43.671Z,46.00
2018-06-30T19:34:15.420Z,45.20
2018-06-30T19:36:45.156Z,44.80
2018-06-30T19:39:14.504Z,45.40
2018-06-30T19:41:44.111Z,46.30
2018-06-30T19:44:13.483Z,46.40
2018-06-30T19:46:43.707Z,46.20
2018-06-30T19:49:13.456Z,46.30
2018-06-30T19:51:42.820Z,46.90
2018-06-30T19:54:12.657Z,47.40
2018-06-30T19:56:42.104Z,46.60
2018-06-30T19:59:11.822Z,46.60
2018-06-30T20:01:41.290Z,46.80
2018-06-30T20:04:10.833Z,49.60
2018-06-30T20:06:40.252Z,50.10
2018-06-30T20:09:10.008Z,49.40
2018-06-30T20:11:39.895Z,49.60
2018-06-30T20:14:09.691Z,50.10
2018-06-30T20:16:39.075Z,49.50
2018-06-30T20:19:08.368Z,49.90
2018-06-30T20:21:38.931Z,51.90
2018-06-30T20:24:08.233Z,50.30
2018-06-30T20:26:37.845Z,51.30
2018-06-30T20:29:08.331Z,48.50
2018-06-30T20:31:38.736Z,50.70
2018-06-30T20:34:08.103Z,50.80
2018-06-30T20:41:36.366Z,54.60
2018-06-30T20:44:05.944Z,51.80
2018-06-30T20:46:35.517Z,50.90
2018-06-30T20:49:04.911Z,52.10
2018-06-30T20:51:34.211Z,51.10
2018-06-30T20:54:04.410Z,53.80
2018-06-30T20:56:33.644Z,56.40
2018-06-30T20:59:02.965Z,51.90
2018-06-30T21:01:32.605Z,52.60
2018-06-30T21:04:01.933Z,55.80
2018-06-30T21:06:31.239Z,53.40
2018-06-30T21:09:00.685Z,53.50
2018-06-30T21:11:30.547Z,52.90
2018-06-30T21:13:59.933Z,53.70
2018-06-30T21:16:29.293Z,54.70
2018-06-30T21:18:58.868Z,56.80
2018-06-30T21:21:28.216Z,55.70
2018-06-30T21:23:58.318Z,55.60
2018-06-30T21:26:27.641Z,56.20
2018-06-30T21:28:57.074Z,54.70
2018-06-30T21:31:26.437Z,54.60
2018-06-30T21:33:55.776Z,55.90
2018-06-30T21:36:25.229Z,54.90
2018-06-30T21:38:54.596Z,55.90
2018-06-30T21:41:23.998Z,56.50
2018-06-30T21:43:53.495Z,55.50
2018-06-30T21:46:22.842Z,55.40
2018-06-30T21:48:52.175Z,56.10
2018-06-30T21:51:22.232Z,57.90
2018-06-30T21:53:51.847Z,57.10
2018-06-30T21:56:21.200Z,56.90
2018-06-30T21:58:50.410Z,57.40
2018-06-30T22:01:24.495Z,58.00
2018-06-30T22:03:55.111Z,57.20
2018-06-30T22:06:24.378Z,57.00
2018-06-30T22:08:53.635Z,56.70
2018-06-30T22:11:23.130Z,57.40
2018-06-30T22:13:52.657Z,58.00
2018-06-30T22:16:22.089Z,59.20
2018-06-30T22:18:51.444Z,59.80
2018-06-30T22:21:21.781Z,59.00
2018-06-30T22:23:52.051Z,57.90
2018-06-30T22:26:21.365Z,58.50
2018-06-30T22:28:50.799Z,58.90
2018-06-30T22:31:20.108Z,61.60
2018-06-30T22:33:49.466Z,58.80
2018-06-30T22:36:18.817Z,59.90
2018-06-30T22:38:48.284Z,60.40
2018-06-30T22:41:17.633Z,61.70
2018-06-30T22:43:47.693Z,60.60
2018-06-30T22:46:16.968Z,61.10
2018-06-30T22:51:16.119Z,60.80
2018-06-30T22:53:46.078Z,61.00
2018-06-30T22:56:15.463Z,62.10
2018-06-30T22:58:44.847Z,62.50
2018-06-30T23:01:14.215Z,60.80
2018-06-30T23:03:43.794Z,63.30
2018-06-30T23:06:13.550Z,61.00
2018-06-30T23:08:48.806Z,62.50
2018-06-30T23:11:18.048Z,62.80
2018-06-30T23:13:47.468Z,61.30
2018-06-30T23:16:16.822Z,63.40
2018-06-30T23:18:47.122Z,62.70
2018-06-30T23:21:17.478Z,63.50
2018-06-30T23:23:46.835Z,61.70
2018-06-30T23:26:16.086Z,63.00
2018-06-30T23:28:45.525Z,62.40
2018-06-30T23:31:14.923Z,62.50
2018-06-30T23:33:44.584Z,64.60
2018-06-30T23:36:13.877Z,64.30
2018-06-30T23:38:43.899Z,64.20
2018-06-30T23:41:13.348Z,63.30
2018-06-30T23:43:44.287Z,63.30
2018-06-30T23:46:13.699Z,64.40
2018-06-30T23:48:43.415Z,64.60
2018-06-30T23:51:12.987Z,65.30
2018-06-30T23:53:42.251Z,65.30
2018-06-30T23:56:11.605Z,66.80
2018-06-30T23:58:41.026Z,67.50
